Portada
METAR-TAF:

METAR-TAF

Aeroports :

Munda, New Georgia, Illes Salomó

latitud: 8-19-41S, longitud: 157-15-47E, altitud: 3 m

Observació

L'informe es va fer fa 6 hores i 49 minuts, a les 06:00 UTC
Vent 10 kt del Est
Temperatura 29°C
Humitat 74%
Pressió 1010 hPa
Visibilitat 10 km o més
Escasses núvols a una alçada de 1700 ft
Cel ennuvolat a una alçada de 10000 ft

METAR: AGGM 170600Z 09010KT 9999 FEW017 BKN100 29/24 Q1010

Hora: 23:49 (12:49 UTC)

Pronòstic

L'informe es va fer fa 1 hora i 44 minuts, a les 11:05 UTC
Pronòstic vàlid del 17 a les 12 UTC al 18 a les 12 UTC
Vent 3 kt amb direcció variable
Visibilitat 10 km o més
Núvols disperses a una alçada de 1700 ft
Probabilitat 40%
entre IN i TE UTC
Visibilitat: 1010 m
Núvols disperses a una alçada de 1600 ft
Escasses núvols a una alçada de 1700 ft, Cumulonimbus.
Cel cobert a una alçada de 3000 ft

TAF: AGGM 171105Z 1712/1812 VRB03KT 9999 SCT017 PROB40 INTER 1712/1718 5000 TSSH SCT016 FEW017CB OVC030 Q 1012 1010 1009 1010

Observacions i pronòstics meteorològics de més de 4000 aeroports (METAR i TAF).

Les estacions disponibles són els punts grocs i vermells al mapa.

Posi el ratolí al punt desitjat per veure el nom de l'estació.

Feu clic per veure les observacions i els pronòstics meteorològics.

Per canviar el mapa: feu clic els botons verds amb una creu de color negre per apropar; al botó verd amb un guió per allunyar la imatge; o en les fletxes verdes per a mapes adjacents.


METAR-TAF: